Time;durP1;ratioP1;P1;durP2;ratioP2;P2;SDS_P1;SDS_P2;PMS_P1;PMS_P2;Temp;Humidity;BMP_temperature;BMP_pressure;BME280_temperature;BME280_humidity;BME280_pressure;Samples;Min_cycle;Max_cycle;Signal;HPM_P1;HPM_P2
2021/12/25 00:01:01;;;;;;;20.67;12.93;;;;;;;5.78;100.00;95058.41;5036749;28;20044;-79
2021/12/25 00:03:28;;;;;;;19.63;11.63;;;;;;;5.78;100.00;95048.81;5048935;28;20114;-77
2021/12/25 00:05:54;;;;;;;19.27;11.63;;;;;;;5.79;100.00;95049.59;5048463;28;20028;-78
2021/12/25 00:08:21;;;;;;;20.93;11.23;;;;;;;5.76;100.00;95045.53;5049885;28;20024;-78
2021/12/25 00:10:48;;;;;;;19.70;10.73;;;;;;;5.76;100.00;95044.72;5030779;28;20110;-80
2021/12/25 00:13:14;;;;;;;16.73;11.20;;;;;;;5.77;100.00;95048.94;5040726;28;20052;-75
2021/12/25 00:15:41;;;;;;;16.90;10.13;;;;;;;5.75;100.00;95056.13;5052360;28;20033;-79
2021/12/25 00:18:07;;;;;;;16.70;9.13;;;;;;;5.76;100.00;95055.94;5037019;28;20036;-80
2021/12/25 00:20:33;;;;;;;14.93;9.63;;;;;;;5.75;100.00;95054.34;5030607;28;20096;-76
2021/12/25 00:23:00;;;;;;;16.97;9.67;;;;;;;5.76;100.00;95049.94;5048261;28;20052;-76
2021/12/25 00:25:27;;;;;;;15.60;9.10;;;;;;;5.80;100.00;95046.03;5036434;28;20441;-79
2021/12/25 00:28:01;;;;;;;13.83;8.83;;;;;;;5.75;100.00;95050.91;5028688;28;20068;-78
2021/12/25 00:30:38;;;;;;;12.80;8.13;;;;;;;5.73;100.00;95051.06;5054772;28;20037;-78
2021/12/25 00:33:18;;;;;;;14.43;7.73;;;;;;;5.75;100.00;95054.34;5053364;28;20029;-78
2021/12/25 00:35:46;;;;;;;14.43;8.10;;;;;;;5.73;100.00;95045.84;5046898;28;20111;-76
2021/12/25 00:38:11;;;;;;;16.10;7.77;;;;;;;5.75;100.00;95038.69;5039865;28;20025;-76
2021/12/25 00:40:37;;;;;;;15.20;7.60;;;;;;;5.76;100.00;95034.28;5058719;28;20134;-77
2021/12/25 00:43:03;;;;;;;14.23;7.90;;;;;;;5.75;100.00;95038.69;5050688;28;20078;-77
2021/12/25 00:45:29;;;;;;;13.10;7.17;;;;;;;5.77;100.00;95036.75;5050009;28;20120;-77
2021/12/25 00:47:54;;;;;;;13.20;7.80;;;;;;;5.77;100.00;95031.53;5033822;28;20087;-76
2021/12/25 00:50:20;;;;;;;12.57;7.63;;;;;;;5.77;100.00;95028.91;5033956;28;20032;-76
2021/12/25 00:52:46;;;;;;;15.50;9.07;;;;;;;5.79;100.00;95036.56;5049919;28;20041;-76
2021/12/25 00:55:11;;;;;;;14.80;8.03;;;;;;;5.76;100.00;95039.50;5048564;28;20074;-76
2021/12/25 00:57:38;;;;;;;14.87;8.53;;;;;;;5.77;100.00;95034.13;5049873;28;20037;-77
2021/12/25 01:00:09;;;;;;;17.93;8.87;;;;;;;5.75;100.00;95043.09;5048682;28;20438;-76
2021/12/25 01:02:38;;;;;;;14.80;8.93;;;;;;;5.77;100.00;95047.19;5029376;28;20033;-77
2021/12/25 01:05:05;;;;;;;16.10;8.83;;;;;;;5.77;100.00;95035.91;5051645;28;20656;-76
2021/12/25 01:07:33;;;;;;;15.70;9.50;;;;;;;5.78;100.00;95038.38;5040731;28;20533;-76
2021/12/25 01:10:02;;;;;;;18.87;9.97;;;;;;;5.77;100.00;95044.56;5050278;28;20021;-76
2021/12/25 01:12:33;;;;;;;26.33;16.50;;;;;;;5.75;100.00;95043.91;5051005;28;20032;-77
2021/12/25 01:15:01;;;;;;;18.57;10.47;;;;;;;5.74;100.00;95042.28;5049994;28;20021;-76
2021/12/25 01:18:52;;;;;;;19.27;10.63;;;;;;;5.75;100.00;95041.28;5045408;28;20025;-76
2021/12/25 01:20:45;;;;;;;16.47;9.87;;;;;;;5.76;100.00;95040.31;5042659;28;20044;-78
2021/12/25 01:23:49;;;;;;;20.83;10.40;;;;;;;5.76;100.00;95042.91;5027819;28;20128;-77
2021/12/25 01:31:45;;;;;;;24.30;11.23;;;;;;;5.78;100.00;95040.97;5054615;28;20025;-78
2021/12/25 01:49:34;;;;;;;26.83;12.30;;;;;;;5.72;100.00;95025.13;5050348;28;20041;-76
2021/12/25 01:52:02;;;;;;;37.03;14.20;;;;;;;5.71;100.00;95026.13;5049790;28;20033;-79
2021/12/25 01:54:28;;;;;;;32.90;12.67;;;;;;;5.75;100.00;95009.97;5046786;28;20080;-77
2021/12/25 01:56:53;;;;;;;26.87;13.47;;;;;;;5.74;100.00;95016.19;5049453;28;20351;-77
2021/12/25 01:59:21;;;;;;;29.63;13.47;;;;;;;5.74;100.00;95010.16;5047989;28;20133;-77
2021/12/25 02:01:47;;;;;;;23.07;12.53;;;;;;;5.71;100.00;95011.28;5029030;28;20013;-76
2021/12/25 02:04:13;;;;;;;25.50;13.10;;;;;;;5.72;100.00;95006.88;5030087;28;20537;-77
2021/12/25 02:06:39;;;;;;;22.60;12.93;;;;;;;5.72;100.00;95015.53;5049198;28;20029;-77
2021/12/25 02:09:06;;;;;;;27.50;13.30;;;;;;;5.72;100.00;95015.53;5032381;28;20032;-77
2021/12/25 02:11:32;;;;;;;25.50;12.83;;;;;;;5.71;100.00;95016.50;5047285;28;20107;-76
2021/12/25 02:13:58;;;;;;;22.37;13.23;;;;;;;5.71;100.00;95011.28;5032187;28;20108;-77
2021/12/25 02:16:29;;;;;;;21.13;12.27;;;;;;;5.73;100.00;95014.53;5043628;28;20068;-77
2021/12/25 02:19:12;;;;;;;30.27;12.87;;;;;;;5.70;100.00;95014.88;5033060;28;20033;-76
2021/12/25 02:22:02;;;;;;;32.67;12.93;;;;;;;5.71;100.00;95011.28;5043204;28;20029;-77
2021/12/25 02:24:29;;;;;;;54.30;16.60;;;;;;;5.73;100.00;95003.28;5032352;28;20017;-78
2021/12/25 02:26:55;;;;;;;44.37;15.83;;;;;;;5.71;100.00;95000.84;5054911;28;20040;-77
2021/12/25 02:29:24;;;;;;;38.77;16.17;;;;;;;5.71;100.00;95005.25;5037287;28;20489;-76
2021/12/25 02:31:52;;;;;;;75.83;18.03;;;;;;;5.68;100.00;95001.97;5038404;28;20052;-77
2021/12/25 02:34:17;;;;;;;71.13;15.83;;;;;;;5.68;100.00;94993.34;5046160;28;20488;-79
2021/12/25 02:36:43;;;;;;;65.97;14.40;;;;;;;5.63;100.00;94996.44;5029651;28;20051;-77
2021/12/25 02:39:11;;;;;;;53.43;13.33;;;;;;;5.64;100.00;94989.44;5038154;28;20031;-77
2021/12/25 02:41:37;;;;;;;44.03;13.23;;;;;;;5.60;100.00;94994.16;5034101;28;20067;-77
2021/12/25 02:44:06;;;;;;;74.90;12.73;;;;;;;5.60;100.00;94988.94;5032075;28;20037;-77
2021/12/25 02:46:42;;;;;;;73.67;13.67;;;;;;;5.60;100.00;94988.09;5034924;28;20024;-77
2021/12/25 02:49:12;;;;;;;58.30;13.83;;;;;;;5.60;100.00;94994.16;5050134;28;20033;-77
2021/12/25 02:51:42;;;;;;;119.37;14.97;;;;;;;5.56;100.00;94992.81;5048675;28;20033;-77
2021/12/25 02:54:08;;;;;;;66.33;13.13;;;;;;;5.58;100.00;94990.88;5028627;28;20023;-77
2021/12/25 02:56:34;;;;;;;36.03;11.37;;;;;;;5.60;100.00;94988.09;5031891;28;20029;-77
2021/12/25 02:58:59;;;;;;;76.93;13.40;;;;;;;5.56;100.00;94981.56;5044649;28;20035;-76
2021/12/25 03:01:26;;;;;;;29.40;11.40;;;;;;;5.56;100.00;94978.97;5031092;28;20024;-77
2021/12/25 03:03:53;;;;;;;44.50;11.63;;;;;;;5.56;100.00;94977.16;5041745;28;20029;-77
2021/12/25 03:06:19;;;;;;;68.77;14.00;;;;;;;5.56;100.00;94973.75;5050459;28;20074;-79
2021/12/25 03:08:45;;;;;;;21.40;10.70;;;;;;;5.57;100.00;94975.41;5053926;28;20772;-77
2021/12/25 03:11:15;;;;;;;33.33;11.07;;;;;;;5.61;100.00;94968.88;5050453;28;20055;-76
2021/12/25 03:13:45;;;;;;;34.23;11.07;;;;;;;5.59;100.00;94971.63;5048959;28;20033;-77
2021/12/25 03:16:14;;;;;;;40.23;11.00;;;;;;;5.57;100.00;94972.78;5034238;28;20074;-76
2021/12/25 03:18:49;;;;;;;36.57;10.73;;;;;;;5.57;100.00;94967.56;5031655;28;20470;-77
2021/12/25 03:21:17;;;;;;;27.67;11.93;;;;;;;5.59;100.00;94965.59;5023625;28;20030;-77
2021/12/25 03:23:45;;;;;;;38.47;11.73;;;;;;;5.55;100.00;94964.28;5045538;28;20037;-77
2021/12/25 03:26:11;;;;;;;27.13;11.33;;;;;;;5.57;100.00;94970.19;5031695;28;20050;-77
2021/12/25 03:28:42;;;;;;;31.50;12.40;;;;;;;5.57;100.00;94972.78;5051756;28;20546;-77
2021/12/25 03:31:16;;;;;;;28.20;11.73;;;;;;;5.54;100.00;94971.31;5029678;28;20032;-77
2021/12/25 03:33:48;;;;;;;24.83;11.23;;;;;;;5.56;100.00;94960.69;5046805;28;20029;-77
2021/12/25 03:36:14;;;;;;;23.73;10.30;;;;;;;5.58;100.00;94969.19;5053479;28;20029;-76
2021/12/25 03:38:40;;;;;;;21.37;10.47;;;;;;;5.57;100.00;94957.94;5052310;28;20406;-77
2021/12/25 03:41:07;;;;;;;16.63;9.67;;;;;;;5.59;100.00;94960.38;5045470;28;20080;-76
2021/12/25 03:43:35;;;;;;;16.40;9.33;;;;;;;5.57;100.00;94957.16;5047513;28;20033;-77
2021/12/25 03:46:01;;;;;;;15.73;9.60;;;;;;;5.57;100.00;94962.34;5039292;28;20033;-77
2021/12/25 03:59:06;;;;;;;11.43;7.37;;;;;;;5.55;100.00;94957.28;5044767;28;20029;-76
2021/12/25 04:04:12;;;;;;;12.17;7.47;;;;;;;5.55;100.00;94943.44;5043077;28;20110;-77
2021/12/25 04:06:50;;;;;;;14.87;7.93;;;;;;;5.53;100.00;94940.97;5030082;28;20085;-77
2021/12/25 04:09:30;;;;;;;12.37;6.90;;;;;;;5.56;100.00;94937.22;5047941;28;20040;-77
2021/12/25 04:12:08;;;;;;;11.37;7.00;;;;;;;5.53;100.00;94940.97;5026980;28;20036;-77
2021/12/25 04:14:35;;;;;;;11.13;6.73;;;;;;;5.60;100.00;94943.75;5027836;28;20025;-77
2021/12/25 04:17:01;;;;;;;11.27;6.67;;;;;;;5.56;100.00;94938.03;5034816;28;20051;-77
2021/12/25 04:19:27;;;;;;;12.83;8.57;;;;;;;5.58;100.00;94937.91;5059057;28;20102;-77
2021/12/25 04:21:58;;;;;;;13.33;7.60;;;;;;;5.53;100.00;94935.75;5033137;28;20120;-77
2021/12/25 04:24:31;;;;;;;14.97;9.03;;;;;;;5.54;100.00;94936.59;5045365;28;20078;-77
2021/12/25 04:26:57;;;;;;;10.55;6.57;;;;;;;5.57;100.00;94939.69;5045386;28;20028;-78
2021/12/25 05:01:53;;;;;;;17.93;10.13;;;;;;;5.66;100.00;94949.16;5042168;28;20032;-78
2021/12/25 05:04:49;;;;;;;12.33;7.47;;;;;;;5.62;100.00;94939.22;5050026;28;20033;-79
2021/12/25 05:07:27;;;;;;;13.53;7.63;;;;;;;5.64;100.00;94937.25;5033484;28;20029;-77
2021/12/25 05:09:53;;;;;;;11.80;7.67;;;;;;;5.64;100.00;94932.06;5044248;28;20059;-77
2021/12/25 05:12:20;;;;;;;12.30;7.83;;;;;;;5.64;100.00;94932.06;5050841;28;20025;-77
2021/12/25 05:14:46;;;;;;;14.43;8.33;;;;;;;5.67;100.00;94929.13;5045093;28;20044;-76
2021/12/25 05:17:13;;;;;;;14.20;8.57;;;;;;;5.64;100.00;94932.84;5046833;28;20021;-77
2021/12/25 05:19:39;;;;;;;15.27;9.03;;;;;;;5.69;100.00;94924.53;5039896;28;20490;-79
2021/12/25 05:22:05;;;;;;;13.37;8.53;;;;;;;5.72;100.00;94926.03;5028275;28;20154;-76
2021/12/25 05:24:31;;;;;;;13.17;8.40;;;;;;;5.69;100.00;94924.53;5045874;28;20028;-76
2021/12/25 05:26:59;;;;;;;12.10;7.80;;;;;;;5.65;100.00;94921.44;5051285;28;20597;-76
2021/12/25 05:29:26;;;;;;;13.17;8.60;;;;;;;5.66;100.00;94922.25;5041305;28;20016;-76
2021/12/25 05:31:53;;;;;;;13.23;8.10;;;;;;;5.65;100.00;94918.84;5040697;28;20025;-76
2021/12/25 05:34:21;;;;;;;13.00;8.33;;;;;;;5.63;100.00;94925.19;5020087;28;20681;-77
2021/12/25 05:37:05;;;;;;;12.80;8.23;;;;;;;5.63;100.00;94922.56;5053542;28;20055;-76
2021/12/25 05:40:12;;;;;;;12.18;7.53;;;;;;;5.62;100.00;94908.72;5034529;28;20119;-77
2021/12/25 05:42:41;;;;;;;13.40;8.23;;;;;;;5.63;100.00;94914.75;5049197;28;20037;-77
2021/12/25 05:45:09;;;;;;;13.03;8.53;;;;;;;5.64;100.00;94914.59;5034027;28;20029;-78
2021/12/25 05:47:58;;;;;;;12.67;8.43;;;;;;;5.68;100.00;94910.69;5057738;28;20497;-77
2021/12/25 05:50:52;;;;;;;15.00;9.15;;;;;;;5.62;100.00;94908.72;5049038;28;20036;-76
2021/12/25 05:53:26;;;;;;;16.43;9.00;;;;;;;5.60;100.00;94907.25;5043547;28;20489;-76
2021/12/25 05:56:23;;;;;;;13.67;9.27;;;;;;;5.63;100.00;94914.75;5041876;28;20300;-76
2021/12/25 05:59:12;;;;;;;14.77;9.43;;;;;;;5.67;100.00;94916.09;5064035;28;20036;-76
2021/12/25 06:01:54;;;;;;;15.63;9.90;;;;;;;5.64;100.00;94912.00;5026287;28;20021;-77
2021/12/25 06:04:23;;;;;;;15.50;9.60;;;;;;;5.64;100.00;94914.59;5039934;28;20093;-76
2021/12/25 06:06:48;;;;;;;14.60;10.33;;;;;;;5.65;100.00;94903.19;5049451;28;20472;-76
2021/12/25 06:09:14;;;;;;;15.67;10.00;;;;;;;5.65;100.00;94907.59;5047487;28;20047;-77
2021/12/25 06:11:40;;;;;;;15.00;10.20;;;;;;;5.62;100.00;94913.13;5046688;28;20033;-79
2021/12/25 06:14:11;;;;;;;16.83;10.60;;;;;;;5.67;100.00;94906.47;5033234;28;20017;-77
2021/12/25 06:16:57;;;;;;;18.40;13.00;;;;;;;5.64;100.00;94896.34;5039764;28;20051;-77
2021/12/25 06:19:32;;;;;;;23.10;17.17;;;;;;;5.63;100.00;94904.31;5032634;28;20573;-75
2021/12/25 06:22:20;;;;;;;15.43;12.70;;;;;;;5.62;100.00;94900.91;5036172;28;20116;-77
2021/12/25 06:25:07;;;;;;;12.50;7.47;;;;;;;5.58;100.00;94909.22;5044616;28;20029;-77
2021/12/25 06:27:53;;;;;;;9.90;6.27;;;;;;;5.56;100.00;94909.34;5042685;28;20119;-78
2021/12/25 06:30:33;;;;;;;9.03;5.93;;;;;;;5.56;100.00;94905.94;5045920;28;20028;-76
2021/12/25 06:33:19;;;;;;;11.00;6.33;;;;;;;5.53;100.00;94908.88;5048737;28;20047;-78
2021/12/25 06:36:07;;;;;;;12.03;6.93;;;;;;;5.54;100.00;94905.31;5035505;28;20033;-77
2021/12/25 06:39:00;;;;;;;13.03;7.43;;;;;;;5.52;100.00;94908.06;5043897;28;20041;-76
2021/12/25 06:41:34;;;;;;;11.33;6.50;;;;;;;5.51;100.00;94910.84;5048782;28;20029;-76
2021/12/25 06:44:01;;;;;;;9.17;5.93;;;;;;;5.50;100.00;94911.78;5030323;28;20025;-77
2021/12/25 06:46:38;;;;;;;12.20;6.33;;;;;;;5.51;100.00;94910.84;5033532;28;20106;-76
2021/12/25 06:49:05;;;;;;;9.20;5.60;;;;;;;5.50;100.00;94909.19;5048380;28;20043;-77
2021/12/25 06:51:51;;;;;;;9.03;5.27;;;;;;;5.49;100.00;94910.16;5045807;28;20798;-77
2021/12/25 06:54:39;;;;;;;8.40;4.60;;;;;;;5.47;100.00;94899.91;5048639;28;20080;-77
2021/12/25 06:57:18;;;;;;;8.57;5.07;;;;;;;5.45;100.00;94896.66;5049268;28;20029;-77
2021/12/25 06:59:45;;;;;;;9.00;5.40;;;;;;;5.48;100.00;94896.31;5054135;28;20782;-77
2021/12/25 07:02:12;;;;;;;9.77;6.23;;;;;;;5.48;100.00;94898.13;5022829;28;20059;-77
2021/12/25 07:04:56;;;;;;;10.70;7.07;;;;;;;5.47;100.00;94896.50;5041753;28;20074;-77
2021/12/25 07:07:28;;;;;;;13.20;8.43;;;;;;;5.49;100.00;94897.13;5045707;28;20032;-77
2021/12/25 07:10:14;;;;;;;15.70;9.27;;;;;;;5.49;100.00;94891.91;5043196;28;20123;-77
2021/12/25 07:13:07;;;;;;;13.40;8.10;;;;;;;5.52;100.00;94899.44;5043892;28;20108;-77
2021/12/25 07:15:48;;;;;;;13.20;7.47;;;;;;;5.51;100.00;94900.41;5033346;28;20033;-77
2021/12/25 07:18:29;;;;;;;8.93;5.90;;;;;;;5.51;100.00;94898.63;5037521;28;20025;-76
2021/12/25 07:21:18;;;;;;;9.23;5.23;;;;;;;5.49;100.00;94899.75;5039189;28;20032;-76
2021/12/25 07:24:04;;;;;;;8.00;4.73;;;;;;;5.49;100.00;94902.34;5044467;28;20037;-77
2021/12/25 07:26:37;;;;;;;8.90;4.95;;;;;;;5.49;100.00;94897.94;5031793;28;20123;-76
2021/12/25 07:29:11;;;;;;;9.47;5.50;;;;;;;5.48;100.00;94898.13;5032087;28;20040;-77
2021/12/25 07:31:37;;;;;;;7.63;4.83;;;;;;;5.51;100.00;94900.41;5049075;28;20029;-76
2021/12/25 07:34:03;;;;;;;8.50;5.13;;;;;;;5.53;100.00;94901.03;5031662;28;20025;-76
2021/12/25 07:36:29;;;;;;;8.97;5.87;;;;;;;5.54;100.00;94897.47;5052136;28;20584;-76
2021/12/25 07:38:56;;;;;;;12.57;8.20;;;;;;;5.55;100.00;94893.88;5030522;28;20036;-76
2021/12/25 07:41:22;;;;;;;10.20;6.43;;;;;;;5.56;100.00;94901.53;5052021;28;20024;-76
2021/12/25 07:43:47;;;;;;;12.10;7.10;;;;;;;5.56;100.00;94898.13;5050721;28;20028;-77
2021/12/25 07:46:38;;;;;;;12.93;8.27;;;;;;;5.56;100.00;94900.72;5040728;28;20139;-79
2021/12/25 07:49:05;;;;;;;12.03;8.47;;;;;;;5.57;100.00;94905.00;5020366;28;20033;-76
2021/12/25 07:51:31;;;;;;;13.23;8.60;;;;;;;5.55;100.00;94906.94;5047005;28;20512;-77
2021/12/25 07:53:56;;;;;;;16.83;11.20;;;;;;;5.59;100.00;94913.44;5033356;28;20037;-77
2021/12/25 07:56:26;;;;;;;16.03;9.93;;;;;;;5.59;100.00;94911.66;5033812;28;20037;-77
2021/12/25 07:58:52;;;;;;;34.77;20.80;;;;;;;5.62;100.00;94907.91;5022895;28;20033;-77
2021/12/25 08:01:19;;;;;;;14.53;9.30;;;;;;;5.62;100.00;94907.91;5058196;28;20028;-78
2021/12/25 08:03:44;;;;;;;17.83;12.43;;;;;;;5.62;100.00;94913.13;5049120;28;20057;-77
2021/12/25 08:06:10;;;;;;;20.43;13.97;;;;;;;5.66;100.00;94917.84;5041920;28;20028;-76
2021/12/25 08:08:36;;;;;;;19.07;11.33;;;;;;;5.70;100.00;94920.13;5032636;28;20037;-77
2021/12/25 08:11:01;;;;;;;19.50;10.60;;;;;;;5.71;100.00;94927.81;5049884;28;20027;-77
2021/12/25 08:13:27;;;;;;;16.63;10.47;;;;;;;5.72;100.00;94928.63;5046495;28;20122;-77
2021/12/25 08:15:53;;;;;;;16.43;10.43;;;;;;;5.72;100.00;94936.44;5048783;28;20078;-77
2021/12/25 08:18:19;;;;;;;17.10;9.33;;;;;;;5.68;100.00;94933.34;5046495;28;20108;-77
2021/12/25 08:21:16;;;;;;;14.20;9.67;;;;;;;5.64;100.00;94937.25;5045553;28;20033;-78
2021/12/25 08:24:00;;;;;;;13.77;8.70;;;;;;;5.65;100.00;94941.50;5041976;28;20047;-77
2021/12/25 08:26:50;;;;;;;17.60;9.67;;;;;;;5.64;100.00;94942.47;5042024;28;20482;-77
2021/12/25 08:29:36;;;;;;;16.90;9.00;;;;;;;5.66;100.00;94945.72;5066598;28;20680;-77
2021/12/25 08:32:23;;;;;;;15.03;9.90;;;;;;;5.70;100.00;94947.06;5050326;28;20068;-77
2021/12/25 08:35:10;;;;;;;19.10;11.33;;;;;;;5.76;100.00;94941.19;5048414;28;20069;-77
2021/12/25 08:37:39;;;;;;;18.30;12.10;;;;;;;5.82;100.00;94945.75;5029140;28;20037;-77
2021/12/25 08:40:07;;;;;;;17.43;10.50;;;;;;;5.88;100.00;94950.31;5027284;28;20495;-76
2021/12/25 08:42:33;;;;;;;17.63;11.33;;;;;;;5.91;100.00;94960.44;5038697;28;20053;-77
2021/12/25 08:47:29;;;;;;;13.37;9.40;;;;;;;5.97;100.00;94973.84;5047080;28;20044;-76
2021/12/25 08:49:55;;;;;;;18.57;10.07;;;;;;;5.96;100.00;94972.22;5028193;28;20021;-76
2021/12/25 08:52:23;;;;;;;16.43;9.93;;;;;;;6.00;100.00;94973.53;5044225;28;20104;-76
2021/12/25 08:54:51;;;;;;;16.83;10.47;;;;;;;6.01;100.00;94981.19;5054325;28;20033;-76
2021/12/25 08:57:21;;;;;;;19.90;13.00;;;;;;;6.00;100.00;94982.19;5044889;28;20036;-76
2021/12/25 08:59:48;;;;;;;18.77;10.00;;;;;;;6.02;100.00;94990.66;5051622;28;20604;-79
2021/12/25 09:02:16;;;;;;;14.80;9.47;;;;;;;6.03;100.00;94988.84;5036587;28;20033;-76
2021/12/25 09:04:46;;;;;;;14.33;8.83;;;;;;;6.04;100.00;94995.72;5032051;28;20024;-79
2021/12/25 09:07:12;;;;;;;12.73;7.33;;;;;;;6.04;100.00;94993.94;5048420;28;20124;-77
2021/12/25 09:09:38;;;;;;;13.07;8.10;;;;;;;6.04;100.00;94988.72;5050925;28;20037;-79
2021/12/25 09:12:06;;;;;;;12.10;7.07;;;;;;;6.06;100.00;94991.16;5037062;28;20487;-77
2021/12/25 09:14:31;;;;;;;15.07;9.47;;;;;;;6.09;100.00;94996.84;5047546;28;20097;-76
2021/12/25 09:16:58;;;;;;;14.70;9.10;;;;;;;6.13;100.00;94986.91;5034907;28;20178;-77
2021/12/25 09:19:24;;;;;;;17.37;10.53;;;;;;;6.21;100.00;94993.94;5035749;28;20029;-77
2021/12/25 09:21:51;;;;;;;29.67;17.33;;;;;;;6.25;100.00;94987.41;5052462;28;20036;-77
2021/12/25 09:24:16;;;;;;;18.70;10.93;;;;;;;6.30;100.00;94995.56;5053767;28;20021;-77
2021/12/25 09:26:43;;;;;;;13.40;7.67;;;;;;;6.33;100.00;94996.03;5038949;28;20033;-78
2021/12/25 09:29:09;;;;;;;12.20;7.80;;;;;;;6.41;100.00;94997.06;5042261;28;20068;-78
2021/12/25 09:31:35;;;;;;;11.37;6.57;;;;;;;6.43;100.00;95000.28;5049489;28;20470;-77
2021/12/25 09:34:02;;;;;;;40.60;20.47;;;;;;;6.47;100.00;94991.16;5037070;28;20029;-79
2021/12/25 09:36:29;;;;;;;14.30;7.60;;;;;;;6.50;100.00;94990.81;5035842;28;20047;-80
2021/12/25 09:38:55;;;;;;;13.27;6.20;;;;;;;6.51;100.00;94997.69;5036694;28;20037;-78
2021/12/25 09:41:21;;;;;;;9.50;4.83;;;;;;;6.51;100.00;94997.69;5040745;28;20031;-77
2021/12/25 09:43:49;;;;;;;9.67;4.50;;;;;;;6.45;100.00;94991.31;5040157;28;20040;-78
2021/12/25 09:46:16;;;;;;;12.83;7.60;;;;;;;6.49;100.00;94987.41;5036067;28;20025;-78
2021/12/25 09:48:43;;;;;;;8.43;4.00;;;;;;;6.48;100.00;94993.59;5035658;28;20036;-77
2021/12/25 09:51:09;;;;;;;7.77;3.40;;;;;;;6.47;100.00;94989.38;5039526;28;20025;-77
2021/12/25 09:53:34;;;;;;;7.03;3.93;;;;;;;6.51;100.00;94993.28;5053412;28;20094;-78
2021/12/25 09:56:02;;;;;;;5.90;3.40;;;;;;;6.54;100.00;94994.75;5036077;28;20021;-77
2021/12/25 09:58:28;;;;;;;7.43;3.53;;;;;;;6.55;100.00;94984.13;5047440;28;20091;-77
2021/12/25 10:00:54;;;;;;;7.37;4.03;;;;;;;6.55;100.00;94978.09;5048173;28;20074;-77
2021/12/25 10:03:20;;;;;;;11.47;6.33;;;;;;;6.60;100.00;94979.22;5055189;28;20390;-77
2021/12/25 10:05:49;;;;;;;19.57;12.63;;;;;;;6.66;100.00;94977.75;5033060;28;20121;-77
2021/12/25 10:08:20;;;;;;;16.93;10.30;;;;;;;6.67;100.00;94978.56;5049172;28;20029;-76
2021/12/25 10:11:00;;;;;;;12.77;7.80;;;;;;;6.68;100.00;94978.41;5049063;28;20044;-80
2021/12/25 10:13:35;;;;;;;10.17;5.90;;;;;;;6.69;100.00;94980.03;5049887;28;20029;-77
2021/12/25 10:16:27;;;;;;;10.97;5.90;;;;;;;6.70;100.00;94984.25;5043252;28;20064;-76
2021/12/25 10:19:10;;;;;;;7.37;4.90;;;;;;;6.68;100.00;94994.06;5050369;28;20551;-76
2021/12/25 10:21:36;;;;;;;10.05;6.30;;;;;;;6.69;100.00;94985.25;5047017;28;20037;-79
2021/12/25 10:24:18;;;;;;;12.13;7.30;;;;;;;6.72;100.00;94989.34;5034901;28;20058;-80
2021/12/25 10:26:47;;;;;;;6.77;3.57;;;;;;;6.73;100.00;94986.53;5051669;28;20495;-79
2021/12/25 10:29:28;;;;;;;22.43;16.33;;;;;;;6.75;100.00;94981.16;5053708;28;20044;-79
2021/12/25 10:32:02;;;;;;;9.50;5.30;;;;;;;6.72;100.00;94984.91;5044951;28;20029;-77
2021/12/25 10:34:31;;;;;;;6.53;3.70;;;;;;;6.73;100.00;94991.78;5042534;28;20021;-79
2021/12/25 10:37:08;;;;;;;8.60;5.27;;;;;;;6.69;100.00;94987.88;5034778;28;20016;-80
2021/12/25 10:39:33;;;;;;;8.20;4.47;;;;;;;6.68;100.00;94988.84;5031057;28;20048;-78
2021/12/25 10:42:17;;;;;;;13.17;6.30;;;;;;;6.69;100.00;94980.03;5057454;28;20029;-79
2021/12/25 10:44:51;;;;;;;;;;;;;;;6.71;100.00;94988.53;5049912;28;20505;-78
2021/12/25 10:47:23;;;;;;;5.22;3.00;;;;;;;6.73;100.00;94986.53;5034431;28;19917;-79
2021/12/25 10:49:56;;;;;;;10.10;4.63;;;;;;;6.75;100.00;94984.59;5053183;28;20037;-79
2021/12/25 10:52:28;;;;;;;8.50;4.07;;;;;;;6.78;100.00;94984.25;5038874;28;20033;-78
2021/12/25 10:54:56;;;;;;;11.63;6.60;;;;;;;6.78;100.00;94976.41;5048867;28;20025;-78
2021/12/25 10:57:34;;;;;;;14.70;9.70;;;;;;;6.83;100.00;94970.69;5046674;28;20546;-79
2021/12/25 11:00:01;;;;;;;14.40;9.83;;;;;;;6.77;100.00;94966.97;5028914;28;20057;-80
2021/12/25 11:02:33;;;;;;;16.13;10.47;;;;;;;6.73;100.00;94970.06;5054440;28;20067;-80
2021/12/25 11:04:59;;;;;;;13.13;9.17;;;;;;;6.70;100.00;94971.19;5034522;28;20037;-80
2021/12/25 11:07:25;;;;;;;14.40;8.40;;;;;;;6.70;100.00;94973.81;5045851;28;20690;-77
2021/12/25 11:10:17;;;;;;;10.93;7.03;;;;;;;6.63;100.00;94967.63;5048687;28;20056;-80
2021/12/25 11:12:43;;;;;;;10.50;5.70;;;;;;;6.68;100.00;94962.72;5039112;28;20029;-81
2021/12/25 11:15:21;;;;;;;8.93;4.90;;;;;;;6.63;100.00;94965.00;5035601;28;20032;-77
2021/12/25 11:17:53;;;;;;;7.67;4.47;;;;;;;6.58;100.00;94962.91;5032593;28;20040;-78
2021/12/25 11:20:31;;;;;;;8.37;4.67;;;;;;;6.54;100.00;94966.03;5031016;28;20068;-77
2021/12/25 11:22:59;;;;;;;7.30;4.90;;;;;;;6.52;100.00;94965.38;5032945;28;20108;-80
2021/12/25 11:25:29;;;;;;;9.47;5.50;;;;;;;6.53;100.00;94966.97;5047241;28;20628;-79
2021/12/25 11:27:55;;;;;;;10.77;6.93;;;;;;;6.53;100.00;94970.41;5049735;28;20098;-81
2021/12/25 11:30:25;;;;;;;9.63;5.20;;;;;;;6.56;100.00;94966.66;5032823;28;20044;-78
2021/12/25 11:32:53;;;;;;;10.00;6.03;;;;;;;6.53;100.00;94969.59;5047822;28;20025;-80
2021/12/25 11:35:20;;;;;;;8.73;4.90;;;;;;;6.59;100.00;94968.94;5030776;28;20087;-80
2021/12/25 11:37:48;;;;;;;18.30;15.17;;;;;;;6.53;100.00;94964.38;5038502;28;20041;-80
2021/12/25 11:40:17;;;;;;;37.10;26.07;;;;;;;6.52;100.00;94967.97;5035610;28;20120;-78
2021/12/25 11:42:48;;;;;;;27.77;18.47;;;;;;;6.52;100.00;94960.94;5048372;28;20094;-79
2021/12/25 11:45:19;;;;;;;7.73;5.20;;;;;;;6.50;100.00;94959.47;5030994;28;20279;-80
2021/12/25 11:47:51;;;;;;;10.57;4.90;;;;;;;6.48;100.00;94967.50;5058880;28;20041;-77
2021/12/25 11:50:24;;;;;;;7.83;4.50;;;;;;;6.49;100.00;94963.88;5045914;28;20025;-80
2021/12/25 11:53:27;;;;;;;8.13;5.00;;;;;;;6.50;100.00;94965.50;5053801;28;20083;-79
2021/12/25 11:58:46;;;;;;;7.03;3.83;;;;;;;6.42;100.00;94964.72;5049691;28;20116;-79
2021/12/25 12:01:18;;;;;;;8.77;4.50;;;;;;;6.41;100.00;94961.31;5032193;28;20033;-80
2021/12/25 12:03:46;;;;;;;6.83;3.87;;;;;;;6.41;100.00;94963.91;5034498;28;20104;-78
2021/12/25 12:06:14;;;;;;;7.37;4.17;;;;;;;6.41;100.00;94965.72;5034591;28;20029;-78
2021/12/25 12:08:55;;;;;;;6.67;3.60;;;;;;;6.37;100.00;94963.44;5036597;28;20037;-80
2021/12/25 12:11:44;;;;;;;10.37;6.33;;;;;;;6.44;100.00;94965.34;5050246;28;20049;-79
2021/12/25 12:14:18;;;;;;;19.67;14.47;;;;;;;6.38;100.00;94962.44;5047840;28;20037;-81
2021/12/25 12:17:22;;;;;;;8.73;5.60;;;;;;;6.38;100.00;94969.47;5038666;28;20037;-82
2021/12/25 12:19:53;;;;;;;15.90;11.37;;;;;;;6.42;100.00;94973.38;5040641;28;20104;-81
2021/12/25 12:22:27;;;;;;;16.43;10.23;;;;;;;6.45;100.00;94970.44;5044747;28;20125;-78
2021/12/25 12:27:35;;;;;;;12.07;7.47;;;;;;;6.49;100.00;94968.31;5053519;28;20075;-77
2021/12/25 12:30:05;;;;;;;9.10;5.60;;;;;;;6.50;100.00;94969.94;5032151;28;20032;-77
2021/12/25 12:32:46;;;;;;;23.33;16.07;;;;;;;6.48;100.00;94971.91;5042061;28;20036;-78
2021/12/25 12:35:37;;;;;;;11.70;6.63;;;;;;;6.48;100.00;94972.72;5033525;28;20033;-79
2021/12/25 12:38:44;;;;;;;8.60;5.13;;;;;;;6.51;100.00;94972.38;5054097;28;20037;-79
2021/12/25 12:41:13;;;;;;;9.17;5.67;;;;;;;6.49;100.00;94981.38;5050250;28;20039;-77
2021/12/25 12:43:56;;;;;;;10.60;6.37;;;;;;;6.46;100.00;94974.66;5036131;28;20487;-77
2021/12/25 12:46:24;;;;;;;8.95;5.65;;;;;;;6.48;100.00;94982.34;5039666;28;20044;-76
2021/12/25 12:49:05;;;;;;;10.33;6.53;;;;;;;6.48;100.00;94984.97;5059169;28;20101;-81
2021/12/25 12:51:31;;;;;;;9.23;6.23;;;;;;;6.51;100.00;94989.84;5038352;28;20041;-79
2021/12/25 12:53:57;;;;;;;10.10;5.87;;;;;;;6.49;100.00;94995.22;5042240;28;20030;-80
2021/12/25 12:56:23;;;;;;;15.50;10.60;;;;;;;6.49;100.00;94994.41;5044746;28;20067;-82
2021/12/25 12:58:54;;;;;;;19.87;13.40;;;;;;;6.54;100.00;94989.53;5042158;28;20111;-81
2021/12/25 13:01:22;;;;;;;11.87;7.93;;;;;;;6.51;100.00;94997.69;5040554;28;20107;-81